Time;durP1;ratioP1;P1;durP2;ratioP2;P2;SDS_P1;SDS_P2;PMS_P1;PMS_P2;Temp;Humidity;BMP_temperature;BMP_pressure;BME280_temperature;BME280_humidity;BME280_pressure;Samples;Min_cycle;Max_cycle;Signal;HPM_P1;HPM_P2
2022/05/02 00:01:36;;;;;;;5.37;4.80;;;;;;;5.81;100.00;96912.06;10453697;28;20211;-60
2022/05/02 00:06:37;;;;;;;9.00;5.00;;;;;;;5.72;100.00;96902.41;10453510;28;20211;-59
2022/05/02 00:11:37;;;;;;;5.50;4.63;;;;;;;5.78;100.00;96899.31;10453000;28;20184;-60
2022/05/02 00:16:39;;;;;;;10.77;4.87;;;;;;;5.78;100.00;96895.91;10452935;28;20216;-59
2022/05/02 00:21:39;;;;;;;6.97;4.70;;;;;;;5.72;100.00;96898.03;10453037;28;20304;-57
2022/05/02 00:26:39;;;;;;;10.40;5.83;;;;;;;5.70;100.00;96904.31;10452937;28;20208;-58
2022/05/02 00:31:40;;;;;;;10.43;4.87;;;;;;;5.58;100.00;96890.50;10452732;28;20191;-58
2022/05/02 00:36:40;;;;;;;7.30;4.77;;;;;;;5.64;100.00;96884.00;10452211;28;20235;-59
2022/05/02 00:41:41;;;;;;;6.40;4.97;;;;;;;5.69;100.00;96884.47;10452680;28;20230;-55
2022/05/02 00:46:41;;;;;;;7.80;4.60;;;;;;;5.70;100.00;96886.94;10452243;28;20245;-56
2022/05/02 00:51:42;;;;;;;7.10;5.10;;;;;;;5.81;100.00;96877.47;10434470;28;20188;-55
2022/05/02 00:56:42;;;;;;;6.43;4.93;;;;;;;5.81;100.00;96883.47;10451997;28;20253;-55
2022/05/02 01:01:42;;;;;;;6.03;4.90;;;;;;;5.76;100.00;96874.38;10451092;28;20204;-55
2022/05/02 01:12:02;;;;;;;10.60;4.87;;;;;;;5.65;100.00;96875.25;10451550;28;20216;-55
2022/05/02 01:17:03;;;;;;;6.43;5.37;;;;;;;5.57;100.00;96875.03;10451505;28;20565;-56
2022/05/02 01:22:04;;;;;;;7.07;5.10;;;;;;;5.52;100.00;96872.81;10451389;28;20259;-55
2022/05/02 01:27:05;;;;;;;9.00;5.40;;;;;;;5.45;100.00;96872.47;10451373;28;20629;-57
2022/05/02 01:32:07;;;;;;;7.53;5.37;;;;;;;5.36;100.00;96868.81;10451177;28;20211;-60
2022/05/02 01:37:09;;;;;;;6.47;5.50;;;;;;;5.26;100.00;96865.28;10453185;23;20236;-56
2022/05/02 01:42:11;;;;;;;6.70;4.83;;;;;;;5.17;100.00;96866.00;10413106;28;20230;-53
2022/05/02 01:47:11;;;;;;;9.77;5.27;;;;;;;5.11;100.00;96864.69;10437923;28;20212;-53
2022/05/02 01:52:11;;;;;;;10.07;5.80;;;;;;;4.95;100.00;96865.06;10458942;28;20696;-53
2022/05/02 01:57:12;;;;;;;7.93;5.50;;;;;;;4.87;100.00;96871.75;10458770;28;20218;-53
2022/05/02 02:02:12;;;;;;;6.47;5.33;;;;;;;4.76;100.00;96864.78;10458758;28;20240;-53
2022/05/02 02:07:14;;;;;;;9.93;5.40;;;;;;;4.53;100.00;96864.75;10458810;28;20208;-54
2022/05/02 02:12:14;;;;;;;9.73;5.47;;;;;;;4.58;100.00;96861.81;10458277;28;20279;-54
2022/05/02 02:17:14;;;;;;;10.47;5.73;;;;;;;4.51;100.00;96865.84;10457553;28;20302;-57
2022/05/02 02:22:18;;;;;;;10.03;6.30;;;;;;;4.21;100.00;96868.00;10458039;28;20591;-56
2022/05/02 02:27:18;;;;;;;11.77;6.60;;;;;;;3.88;100.00;96869.50;10457565;28;20306;-57
2022/05/02 02:32:19;;;;;;;9.97;5.83;;;;;;;4.10;100.00;96865.34;10439770;28;20282;-55
2022/05/02 02:37:19;;;;;;;9.83;6.40;;;;;;;4.00;100.00;96864.38;10457253;28;20246;-54
2022/05/02 02:42:22;;;;;;;9.27;5.63;;;;;;;3.89;100.00;96860.81;10456692;28;20219;-56
2022/05/02 02:47:23;;;;;;;9.97;6.10;;;;;;;3.89;100.00;96858.22;10456969;28;20215;-54
2022/05/02 02:52:23;;;;;;;8.13;5.53;;;;;;;3.85;100.00;96858.53;10455599;28;20682;-54
2022/05/02 02:57:24;;;;;;;9.80;6.03;;;;;;;3.75;100.00;96855.78;10456316;28;20772;-54
2022/05/02 03:02:24;;;;;;;10.23;6.87;;;;;;;3.60;100.00;96854.28;10457454;28;20211;-54
2022/05/02 03:07:26;;;;;;;10.97;6.37;;;;;;;3.57;100.00;96848.41;10497283;28;20650;-55
2022/05/02 03:12:26;;;;;;;8.23;6.33;;;;;;;3.56;100.00;96848.50;10479479;28;20776;-54
2022/05/02 03:17:27;;;;;;;7.77;6.07;;;;;;;3.60;100.00;96854.28;10496979;28;20317;-54
2022/05/02 03:22:27;;;;;;;8.40;5.87;;;;;;;3.50;100.00;96849.75;10497057;28;20313;-54
2022/05/02 03:27:27;;;;;;;9.67;6.00;;;;;;;3.37;100.00;96849.81;10496589;28;20215;-54
2022/05/02 03:32:28;;;;;;;11.27;5.90;;;;;;;3.25;100.00;96847.25;10496413;28;20226;-55
2022/05/02 03:37:28;;;;;;;8.50;5.93;;;;;;;3.10;100.00;96844.81;10496157;28;20238;-54
2022/05/02 03:42:28;;;;;;;9.13;5.87;;;;;;;3.19;100.00;96843.34;10496070;28;20223;-54
2022/05/02 03:47:29;;;;;;;9.60;6.00;;;;;;;3.23;100.00;96847.34;10495817;28;20210;-54
2022/05/02 03:52:29;;;;;;;13.17;7.10;;;;;;;3.17;100.00;96848.63;10495710;28;20187;-54
2022/05/02 03:57:29;;;;;;;14.23;6.77;;;;;;;3.20;100.00;96840.66;10495426;28;20245;-54
2022/05/02 04:02:30;;;;;;;9.40;6.97;;;;;;;3.13;100.00;96834.22;10495044;28;20223;-54
2022/05/02 04:07:30;;;;;;;11.73;6.57;;;;;;;3.13;100.00;96841.19;10494734;28;20203;-54
2022/05/02 04:12:37;;;;;;;9.50;7.00;;;;;;;3.12;100.00;96837.75;10494424;28;20278;-54
2022/05/02 04:17:39;;;;;;;10.83;6.73;;;;;;;3.10;100.00;96839.63;10494488;28;20219;-54
2022/05/02 04:22:40;;;;;;;10.57;6.17;;;;;;;3.17;100.00;96835.69;10494541;28;20278;-54
2022/05/02 04:27:40;;;;;;;11.73;7.30;;;;;;;3.07;100.00;96837.25;10494245;28;20626;-54
2022/05/02 04:32:40;;;;;;;7.60;6.13;;;;;;;3.10;100.00;96846.56;10494163;28;20191;-57
2022/05/02 04:37:41;;;;;;;8.67;6.90;;;;;;;3.22;100.00;96851.72;10493947;28;20325;-55
2022/05/02 04:42:41;;;;;;;12.77;6.30;;;;;;;3.34;100.00;96844.03;10493957;28;20227;-54
2022/05/02 04:47:41;;;;;;;10.40;6.27;;;;;;;3.51;100.00;96850.59;10493763;28;20219;-54
2022/05/02 04:52:42;;;;;;;13.43;7.20;;;;;;;3.53;100.00;96851.31;10493863;28;20222;-54
2022/05/02 04:57:42;;;;;;;11.40;5.90;;;;;;;3.71;100.00;96842.22;10493977;28;20218;-54
2022/05/02 05:02:43;;;;;;;15.60;7.10;;;;;;;3.87;100.00;96849.69;10493468;28;20223;-56
2022/05/02 05:07:43;;;;;;;10.07;6.30;;;;;;;4.05;100.00;96841.53;10493456;28;20211;-54
2022/05/02 05:12:58;;;;;;;11.57;6.10;;;;;;;4.31;100.00;96841.38;10492970;28;20274;-54
2022/05/02 05:18:07;;;;;;;12.27;6.43;;;;;;;4.49;100.00;96839.16;10480330;28;20210;-55
2022/05/02 05:23:41;;;;;;;11.40;6.67;;;;;;;4.90;100.00;96828.25;10501549;28;20720;-57
2022/05/02 05:28:50;;;;;;;8.10;6.03;;;;;;;5.20;100.00;96829.41;10483805;28;20254;-59
2022/05/02 05:33:54;;;;;;;13.33;5.83;;;;;;;5.54;100.00;96819.78;10483620;28;20302;-58
2022/05/02 05:39:05;;;;;;;8.87;6.30;;;;;;;5.80;100.00;96816.00;10500766;28;20235;-59
2022/05/02 05:44:23;;;;;;;9.30;5.87;;;;;;;6.13;100.00;96822.06;10500524;28;20230;-59
2022/05/02 05:50:06;;;;;;;9.17;5.47;;;;;;;6.81;100.00;96816.41;10482441;28;20289;-59
2022/05/02 05:55:09;;;;;;;12.83;5.33;;;;;;;7.44;100.00;96790.97;10484636;28;20608;-59
2022/05/02 06:00:11;;;;;;;7.87;5.10;;;;;;;8.01;100.00;96777.28;10482238;28;20620;-58
2022/05/02 06:05:13;;;;;;;7.00;5.20;;;;;;;8.72;96.36;96770.81;10499800;28;20314;-54
2022/05/02 06:10:15;;;;;;;11.70;5.07;;;;;;;9.82;87.64;96742.91;10499789;28;20207;-60
2022/05/02 06:20:38;;;;;;;6.50;4.50;;;;;;;11.37;80.16;96709.81;10499899;28;20191;-61
2022/05/02 06:25:40;;;;;;;11.95;5.80;;;;;;;11.58;76.74;96676.06;10497270;28;20211;-61
2022/05/02 06:30:42;;;;;;;10.90;5.30;;;;;;;12.62;73.27;96651.78;10499146;28;20195;-62
2022/05/02 06:36:07;;;;;;;10.02;5.40;;;;;;;13.40;69.76;96626.38;10489129;28;20253;-58
2022/05/02 06:41:31;;;;;;;9.50;5.35;;;;;;;14.08;68.30;96632.47;10499224;28;20199;-58
2022/05/02 06:46:44;;;;;;;11.30;5.30;;;;;;;14.49;64.42;96581.13;10477668;28;20215;-59
2022/05/02 06:51:49;;;;;;;8.25;5.45;;;;;;;14.95;60.91;96543.13;10457945;28;20266;-59
2022/05/02 06:57:03;;;;;;;10.15;5.55;;;;;;;14.57;62.51;96573.13;10449653;28;20243;-56
2022/05/02 07:02:14;;;;;;;12.73;5.47;;;;;;;15.30;58.02;96499.19;10454611;28;20605;-56
2022/05/02 07:07:32;;;;;;;8.32;5.40;;;;;;;15.00;60.15;96547.84;10454542;28;20270;-57
2022/05/02 07:12:39;;;;;;;8.90;5.55;;;;;;;15.96;55.91;96490.06;10454109;28;20207;-60
2022/05/02 07:17:42;;;;;;;8.30;5.20;;;;;;;15.56;55.84;96473.97;10436241;28;20714;-60
2022/05/02 07:22:43;;;;;;;8.55;5.47;;;;;;;14.90;59.67;96566.59;10453808;28;20592;-60
2022/05/02 07:27:55;;;;;;;8.70;4.95;;;;;;;16.67;55.09;96496.00;10453553;28;20761;-55
2022/05/02 07:32:56;;;;;;;11.98;5.50;;;;;;;17.52;53.58;96482.22;10435920;28;20554;-55
2022/05/02 07:37:57;;;;;;;5.63;4.97;;;;;;;18.24;50.78;96429.22;10501307;22;20244;-58
2022/05/02 07:43:11;;;;;;;9.95;5.60;;;;;;;16.74;54.67;96516.16;10575078;28;20256;-62
2022/05/02 07:48:12;;;;;;;8.50;5.72;;;;;;;16.60;55.34;96533.03;10522012;28;20751;-60
2022/05/02 07:53:13;;;;;;;10.88;5.57;;;;;;;16.93;55.73;96545.53;10492497;28;20230;-60
2022/05/02 07:58:14;;;;;;;8.45;5.75;;;;;;;16.58;53.72;96487.44;10477495;28;20265;-60
2022/05/02 08:03:14;;;;;;;9.80;6.13;;;;;;;17.73;51.23;96458.13;10474385;28;20219;-61
2022/05/02 08:08:22;;;;;;;12.35;5.88;;;;;;;17.14;53.29;96496.91;10475181;28;20207;-61
2022/05/02 08:13:52;;;;;;;12.57;6.20;;;;;;;17.25;54.30;96533.34;10491759;28;20190;-60
2022/05/02 08:19:03;;;;;;;10.00;5.80;;;;;;;18.48;50.28;96452.34;10509212;28;20709;-59
2022/05/02 08:30:21;;;;;;;11.20;5.80;;;;;;;19.18;50.25;96480.69;10515420;28;20215;-63
2022/05/02 08:35:45;;;;;;;13.13;9.25;;;;;;;18.17;53.23;96541.41;10534628;28;20194;-60
2022/05/02 08:41:08;;;;;;;11.38;5.90;;;;;;;18.59;51.37;96492.47;10534090;28;20241;-62
2022/05/02 08:46:20;;;;;;;9.23;6.38;;;;;;;17.78;53.94;96548.41;10534294;28;20218;-62
2022/05/02 08:51:47;;;;;;;12.85;6.32;;;;;;;18.32;51.82;96496.09;10533316;28;20728;-62
2022/05/02 08:56:59;;;;;;;14.13;6.75;;;;;;;18.81;50.16;96472.56;10514044;28;20187;-59
2022/05/02 09:02:21;;;;;;;13.68;7.55;;;;;;;18.37;51.25;96492.78;10474470;28;20590;-61
2022/05/02 09:07:59;;;;;;;9.30;7.50;;;;;;;19.25;49.75;96473.47;10492511;28;20215;-63
2022/05/02 09:13:08;;;;;;;13.80;6.63;;;;;;;19.59;48.44;96444.75;10491762;28;20257;-64
2022/05/02 09:18:30;;;;;;;8.90;6.20;;;;;;;21.19;45.76;96425.03;10492447;28;20221;-62
2022/05/02 09:24:04;;;;;;;9.32;6.65;;;;;;;19.20;50.96;96509.66;10492209;28;20309;-62
2022/05/02 09:29:30;;;;;;;8.50;6.32;;;;;;;20.30;48.20;96465.66;10490676;28;20271;-61
2022/05/02 09:34:36;;;;;;;10.45;6.30;;;;;;;20.30;46.86;96418.56;10471738;28;20252;-61
2022/05/02 09:39:46;;;;;;;12.65;7.10;;;;;;;18.77;49.74;96459.91;10489476;28;20231;-61
2022/05/02 09:50:33;;;;;;;12.60;6.60;;;;;;;18.91;50.61;96492.53;10491411;28;20211;-60
2022/05/02 10:01:20;;;;;;;18.20;7.05;;;;;;;19.42;49.87;96467.63;10477851;28;20226;-60
2022/05/02 10:06:49;;;;;;;9.07;6.45;;;;;;;19.13;51.62;96507.06;10497213;28;20258;-61
2022/05/02 10:12:03;;;;;;;9.98;7.05;;;;;;;19.24;51.02;96490.44;10497855;28;20194;-60
2022/05/02 10:17:08;;;;;;;10.60;6.43;;;;;;;20.32;46.71;96394.41;10498355;28;20298;-62
2022/05/02 10:22:17;;;;;;;12.98;6.82;;;;;;;20.12;48.10;96426.59;10498585;28;20232;-62
2022/05/02 10:27:41;;;;;;;15.48;7.78;;;;;;;19.35;51.97;96506.69;10498098;28;20250;-62
2022/05/02 10:32:53;;;;;;;12.10;6.93;;;;;;;19.83;49.25;96447.59;10498345;28;20191;-62
2022/05/02 10:37:56;;;;;;;11.63;7.03;;;;;;;20.22;48.98;96429.53;10532456;28;20226;-62
2022/05/02 10:42:57;;;;;;;14.02;7.47;;;;;;;20.03;47.97;96396.84;10539477;28;20696;-62
2022/05/02 10:48:11;;;;;;;9.73;6.72;;;;;;;20.48;46.82;96382.31;10539158;28;20206;-62
2022/05/02 10:53:39;;;;;;;10.63;6.53;;;;;;;19.60;49.16;96421.63;10521768;28;20195;-60
2022/05/02 10:58:43;;;;;;;15.70;7.15;;;;;;;19.07;51.01;96465.47;10520981;28;20239;-61
2022/05/02 11:04:11;;;;;;;9.07;5.78;;;;;;;19.49;50.20;96449.75;10537058;28;20215;-61
2022/05/02 11:09:32;;;;;;;11.23;7.25;;;;;;;19.30;50.48;96448.13;10500912;28;20222;-62
2022/05/02 11:14:41;;;;;;;11.38;6.63;;;;;;;18.88;51.36;96461.91;10495206;28;20195;-60
2022/05/02 11:25:21;;;;;;;14.55;7.07;;;;;;;17.18;55.59;96516.69;10462291;28;20223;-61
2022/05/02 11:30:23;;;;;;;12.45;6.95;;;;;;;17.38;56.29;96545.81;10495614;28;20211;-61
2022/05/02 11:35:25;;;;;;;11.93;7.13;;;;;;;17.70;54.85;96508.06;10477778;28;20267;-61
2022/05/02 11:40:33;;;;;;;13.13;7.57;;;;;;;17.13;56.27;96526.22;10474991;28;20246;-61
2022/05/02 11:45:44;;;;;;;10.13;7.03;;;;;;;17.27;57.29;96552.53;10474479;28;20724;-60
2022/05/02 11:50:46;;;;;;;12.00;8.45;;;;;;;17.29;55.11;96496.72;10476740;28;20280;-59
2022/05/02 11:55:47;;;;;;;10.80;7.10;;;;;;;17.79;55.73;96522.72;10494952;28;20222;-61
2022/05/02 12:00:51;;;;;;;12.25;8.35;;;;;;;16.96;55.80;96499.34;10494546;28;20211;-62
2022/05/02 12:05:52;;;;;;;16.27;7.18;;;;;;;17.55;54.99;96495.03;10493856;28;20230;-60
2022/05/02 12:11:09;;;;;;;14.48;6.80;;;;;;;16.67;57.39;96523.25;10493390;28;20223;-61
2022/05/02 12:16:17;;;;;;;10.30;6.88;;;;;;;17.19;56.88;96518.28;10494180;28;20179;-61
2022/05/02 12:21:42;;;;;;;11.95;9.07;;;;;;;17.22;57.42;96530.31;10493854;28;20250;-62
2022/05/02 12:26:49;;;;;;;13.65;6.85;;;;;;;18.05;53.46;96452.16;10493351;28;20214;-60
2022/05/02 12:31:58;;;;;;;10.90;7.13;;;;;;;18.25;53.65;96467.97;10493641;28;20192;-63
2022/05/02 12:36:59;;;;;;;9.48;6.50;;;;;;;19.27;50.96;96416.69;10492691;28;20246;-61
2022/05/02 12:42:16;;;;;;;9.00;6.20;;;;;;;19.19;50.37;96399.97;10492323;28;20760;-62
2022/05/02 12:47:19;;;;;;;14.98;7.00;;;;;;;19.16;50.20;96389.81;10493094;28;20203;-61
2022/05/02 12:52:20;;;;;;;8.25;6.25;;;;;;;19.31;51.65;96439.09;10475258;28;20277;-60
2022/05/02 13:02:54;;;;;;;11.30;6.93;;;;;;;20.09;49.54;96381.81;10492687;28;20219;-59
2022/05/02 13:07:55;;;;;;;9.15;6.03;;;;;;;20.58;50.06;96411.03;10481387;28;20199;-58
2022/05/02 13:13:12;;;;;;;9.98;6.30;;;;;;;19.91;49.77;96372.06;10509894;28;20943;-59
2022/05/02 13:18:16;;;;;;;7.53;5.43;;;;;;;20.75;48.54;96379.25;10508544;28;20214;-60
2022/05/02 13:23:16;;;;;;;7.75;6.05;;;;;;;20.93;47.37;96336.56;10512030;28;20293;-60
2022/05/02 13:28:25;;;;;;;8.02;6.05;;;;;;;20.75;44.56;96247.00;10501143;28;20643;-59
2022/05/02 13:33:33;;;;;;;10.95;6.25;;;;;;;20.59;47.65;96332.81;10480410;28;20191;-61
2022/05/02 13:38:42;;;;;;;9.32;6.10;;;;;;;20.21;47.87;96320.69;10516832;28;20588;-62
2022/05/02 13:44:21;;;;;;;8.82;4.97;;;;;;;21.24;45.44;96267.16;10530527;28;20759;-61
2022/05/02 13:49:48;;;;;;;7.72;5.05;;;;;;;21.31;42.35;96164.72;10525998;28;20255;-61
2022/05/02 13:54:52;;;;;;;8.52;5.07;;;;;;;21.91;42.95;96216.75;10584145;22;20374;-60
2022/05/02 13:59:58;;;;;;;9.32;6.25;;;;;;;21.86;43.62;96221.97;10583117;28;20683;-59
2022/05/02 14:05:10;;;;;;;8.32;5.72;;;;;;;21.75;45.06;96270.06;10539347;28;20254;-60
2022/05/02 14:10:12;;;;;;;10.63;5.68;;;;;;;21.71;45.07;96267.03;10536914;28;20214;-59
2022/05/02 14:15:14;;;;;;;10.30;5.93;;;;;;;22.15;45.09;96277.97;10507046;28;20202;-58
2022/05/02 14:20:21;;;;;;;5.80;4.57;;;;;;;22.74;41.91;96197.47;10490389;28;20199;-59
2022/05/02 14:25:25;;;;;;;13.27;6.63;;;;;;;23.62;40.55;96179.81;10498111;28;20230;-59
2022/05/02 14:30:26;;;;;;;7.32;5.50;;;;;;;22.92;42.25;96203.56;10501961;28;20837;-59
2022/05/02 14:35:29;;;;;;;7.90;5.13;;;;;;;25.44;37.43;96134.03;10497360;28;20215;-61
2022/05/02 14:40:29;;;;;;;8.23;5.13;;;;;;;23.99;40.58;96195.13;10496432;28;20195;-60
2022/05/02 14:45:30;;;;;;;9.98;4.75;;;;;;;26.77;35.91;96116.22;10479187;28;20592;-58
2022/05/02 14:50:31;;;;;;;9.80;5.40;;;;;;;28.29;32.46;96046.53;10496657;28;20629;-61
2022/05/02 14:55:32;;;;;;;5.90;4.75;;;;;;;29.83;29.73;95981.50;10478738;28;20246;-59
2022/05/02 15:00:36;;;;;;;14.00;5.85;;;;;;;28.00;32.37;96006.97;10479175;28;20211;-59
2022/05/02 15:05:36;;;;;;;8.88;5.00;;;;;;;28.58;32.33;96053.75;10511791;28;20214;-57
2022/05/02 15:10:55;;;;;;;8.23;4.55;;;;;;;29.63;31.37;96053.66;10501959;28;20187;-60
2022/05/02 15:15:58;;;;;;;5.30;4.50;;;;;;;29.78;30.15;96013.97;10514439;28;20261;-59
2022/05/02 15:21:02;;;;;;;10.65;5.40;;;;;;;26.34;35.45;96067.47;10498598;28;20198;-59
2022/05/02 15:26:02;;;;;;;7.80;4.72;;;;;;;25.32;36.17;96060.28;10506311;28;20215;-60
2022/05/02 15:41:42;;;;;;;11.50;4.75;;;;;;;28.75;31.18;96013.63;10537838;28;20190;-59
2022/05/02 15:46:46;;;;;;;8.50;5.68;;;;;;;28.01;31.10;95988.91;10496095;28;20226;-60
2022/05/02 15:51:47;;;;;;;9.48;5.40;;;;;;;27.21;33.24;96029.41;10495594;28;20702;-58
2022/05/02 15:56:59;;;;;;;8.55;4.65;;;;;;;24.63;36.47;96046.97;10499288;28;20700;-60
2022/05/02 16:02:02;;;;;;;8.98;5.32;;;;;;;25.07;36.06;96061.84;10513693;28;20199;-58
2022/05/02 16:12:23;;;;;;;7.55;4.53;;;;;;;27.59;31.82;96013.50;10536436;28;20214;-59
2022/05/02 16:17:24;;;;;;;8.32;4.60;;;;;;;26.17;32.88;95989.88;10518959;28;20568;-59
2022/05/02 16:22:25;;;;;;;6.28;4.43;;;;;;;24.46;35.79;96015.00;10534968;28;20214;-60
2022/05/02 16:27:25;;;;;;;7.38;5.03;;;;;;;23.32;38.57;96088.38;10533618;28;20684;-61
2022/05/02 16:32:28;;;;;;;10.18;5.38;;;;;;;22.95;37.93;96046.25;10535801;28;20712;-62
2022/05/02 16:37:36;;;;;;;5.95;4.68;;;;;;;22.92;38.03;96057.44;10535950;28;20198;-62
2022/05/02 16:42:37;;;;;;;9.60;4.95;;;;;;;21.54;41.62;96125.72;10534462;28;20321;-61
2022/05/02 16:47:39;;;;;;;7.07;4.32;;;;;;;21.28;42.43;96141.22;10535288;28;20190;-61
2022/05/02 16:52:41;;;;;;;6.28;4.28;;;;;;;21.44;42.28;96142.34;10535777;28;20262;-61
2022/05/02 16:57:41;;;;;;;7.93;4.60;;;;;;;21.30;41.79;96131.16;10535244;28;20215;-61
2022/05/02 17:02:45;;;;;;;12.25;5.25;;;;;;;20.21;44.25;96171.75;10535383;28;20226;-62
2022/05/02 17:07:46;;;;;;;5.03;4.32;;;;;;;20.19;43.82;96163.19;10535249;28;20194;-62
2022/05/02 17:12:47;;;;;;;6.03;4.47;;;;;;;19.74;44.16;96160.00;10533694;28;20296;-59
2022/05/02 17:17:50;;;;;;;6.95;4.40;;;;;;;19.33;45.81;96204.13;10535157;28;20187;-62
2022/05/02 17:22:50;;;;;;;4.72;3.63;;;;;;;19.25;46.35;96205.25;10535516;28;20218;-61
2022/05/02 17:27:51;;;;;;;8.10;4.13;;;;;;;18.89;47.34;96229.97;10534017;28;20669;-61
2022/05/02 17:32:53;;;;;;;5.43;3.75;;;;;;;18.61;47.04;96217.19;10534751;28;20309;-61
2022/05/02 17:37:58;;;;;;;5.47;4.63;;;;;;;17.99;50.19;96292.13;10534469;28;20243;-61
2022/05/02 17:42:59;;;;;;;10.43;4.85;;;;;;;15.66;56.13;96378.56;10534547;28;20287;-60
2022/05/02 17:48:01;;;;;;;6.18;4.95;;;;;;;15.89;58.33;96441.66;10534347;28;20737;-58
2022/05/02 17:53:06;;;;;;;7.03;4.90;;;;;;;15.69;58.78;96436.25;10534272;28;20231;-61
2022/05/02 17:58:08;;;;;;;8.20;5.30;;;;;;;14.22;63.29;96506.22;10534259;28;20191;-60
2022/05/02 18:03:19;;;;;;;9.88;6.30;;;;;;;13.36;66.53;96532.97;10534087;28;20218;-58
2022/05/02 18:08:20;;;;;;;13.02;5.97;;;;;;;13.11;67.19;96533.16;10533660;28;20630;-58
2022/05/02 18:13:22;;;;;;;12.10;6.50;;;;;;;13.17;68.86;96542.97;10533912;28;20293;-54
2022/05/02 18:18:51;;;;;;;8.77;6.88;;;;;;;12.78;72.22;96548.34;10533517;28;20230;-58
2022/05/02 18:23:54;;;;;;;9.60;6.35;;;;;;;12.63;74.90;96549.09;10525054;28;20226;-59
2022/05/02 18:28:55;;;;;;;7.28;6.22;;;;;;;12.38;77.30;96529.22;10540573;28;20199;-60
2022/05/02 18:33:57;;;;;;;12.68;5.88;;;;;;;12.11;80.14;96528.66;10540506;28;20198;-60
2022/05/02 18:39:09;;;;;;;9.98;6.55;;;;;;;11.94;82.23;96525.28;10540594;28;20530;-58
2022/05/02 18:44:13;;;;;;;10.00;7.00;;;;;;;11.64;85.20;96538.16;10539890;28;20218;-59
2022/05/02 18:54:35;;;;;;;12.00;7.30;;;;;;;11.14;90.54;96552.28;10539129;28;20700;-56
2022/05/02 18:59:36;;;;;;;7.00;5.90;;;;;;;11.07;93.63;96557.34;10539967;28;20273;-54
2022/05/02 19:04:41;;;;;;;9.27;6.53;;;;;;;10.77;96.70;96561.44;10521138;28;20214;-56
2022/05/02 19:09:47;;;;;;;10.10;6.60;;;;;;;10.51;99.37;96564.97;10538757;28;20183;-54
2022/05/02 19:14:50;;;;;;;9.53;7.30;;;;;;;10.31;100.00;96567.81;10538875;28;20263;-56
2022/05/02 19:19:50;;;;;;;13.07;8.80;;;;;;;10.26;100.00;96571.88;10538783;28;20202;-57
2022/05/02 19:25:14;;;;;;;10.93;8.30;;;;;;;10.08;100.00;96572.00;10538046;28;20223;-57
2022/05/02 19:30:17;;;;;;;9.83;7.20;;;;;;;9.88;100.00;96577.47;10530706;28;20210;-58
2022/05/02 19:40:41;;;;;;;13.07;8.17;;;;;;;9.60;100.00;96579.41;10537785;28;20183;-54
2022/05/02 19:45:48;;;;;;;12.00;6.73;;;;;;;9.70;100.00;96579.31;10537177;28;20276;-55
2022/05/02 19:50:49;;;;;;;10.47;6.20;;;;;;;9.85;100.00;96576.94;10537660;28;20233;-56
2022/05/02 19:55:49;;;;;;;12.97;6.57;;;;;;;9.68;100.00;96586.47;10587864;22;20257;-61
2022/05/02 20:00:49;;;;;;;8.97;8.07;;;;;;;9.18;100.00;96588.75;10560033;28;20974;-56
2022/05/02 20:05:50;;;;;;;12.43;8.00;;;;;;;9.05;100.00;96588.28;10578894;28;20226;-55
2022/05/02 20:10:50;;;;;;;12.40;7.17;;;;;;;8.99;100.00;96583.66;10577405;28;20194;-54
2022/05/02 20:15:50;;;;;;;11.17;8.30;;;;;;;8.95;100.00;96579.72;10578701;28;20220;-59
2022/05/02 20:20:51;;;;;;;14.47;8.43;;;;;;;8.89;100.00;96581.13;10578861;28;20190;-56
2022/05/02 20:25:51;;;;;;;10.13;6.90;;;;;;;8.75;100.00;96587.69;10578233;28;20232;-57
2022/05/02 20:30:52;;;;;;;13.30;7.77;;;;;;;8.63;100.00;96588.88;10578056;28;20276;-58
2022/05/02 20:41:18;;;;;;;12.90;8.40;;;;;;;8.51;100.00;96578.63;10578394;28;20269;-57
2022/05/02 20:46:18;;;;;;;14.40;8.20;;;;;;;8.40;100.00;96581.41;10579050;28;20225;-54
2022/05/02 20:51:20;;;;;;;13.53;8.37;;;;;;;8.37;100.00;96581.72;10575111;28;20186;-56
2022/05/02 20:56:20;;;;;;;13.13;7.70;;;;;;;8.38;100.00;96584.19;10542677;28;20233;-57
2022/05/02 21:01:24;;;;;;;10.43;8.23;;;;;;;8.34;100.00;96571.56;10549460;28;20186;-59
2022/05/02 21:06:24;;;;;;;13.03;8.63;;;;;;;8.38;100.00;96572.94;10537666;28;20366;-55
2022/05/02 21:11:38;;;;;;;11.63;7.33;;;;;;;8.41;100.00;96577.84;10535394;28;20230;-55
2022/05/02 21:16:48;;;;;;;10.43;8.20;;;;;;;8.32;100.00;96583.94;10517558;28;20202;-52
2022/05/02 21:22:03;;;;;;;11.80;8.63;;;;;;;8.33;100.00;96572.53;10535239;28;20183;-54
2022/05/02 21:27:16;;;;;;;9.33;7.63;;;;;;;8.22;100.00;96573.53;10516484;28;20619;-53
2022/05/02 21:32:35;;;;;;;11.93;8.50;;;;;;;8.33;100.00;96577.75;10534830;28;20199;-57
2022/05/02 21:37:46;;;;;;;12.20;8.70;;;;;;;8.30;100.00;96575.41;10534111;28;20214;-56
2022/05/02 21:42:51;;;;;;;9.97;8.30;;;;;;;8.44;100.00;96569.75;10534323;28;20573;-57
2022/05/02 21:47:52;;;;;;;14.40;9.13;;;;;;;8.59;100.00;96585.75;10534198;28;20202;-53
2022/05/02 21:52:52;;;;;;;11.60;8.23;;;;;;;8.62;100.00;96577.63;10534275;28;20556;-53
2022/05/02 21:57:53;;;;;;;14.43;8.23;;;;;;;8.60;100.00;96576.94;10535179;28;20202;-54
2022/05/02 22:02:54;;;;;;;11.10;8.67;;;;;;;8.65;100.00;96581.72;10541592;28;20214;-56
2022/05/02 22:07:54;;;;;;;15.80;9.10;;;;;;;8.60;100.00;96587.38;10541529;28;20285;-58
2022/05/02 22:12:54;;;;;;;10.93;8.43;;;;;;;8.49;100.00;96580.56;10540707;28;20304;-57
2022/05/02 22:17:55;;;;;;;10.63;7.67;;;;;;;8.46;100.00;96586.09;10541173;28;20191;-58
2022/05/02 22:22:56;;;;;;;11.10;8.17;;;;;;;8.50;100.00;96587.44;10540739;28;20710;-57
2022/05/02 22:27:56;;;;;;;13.60;8.07;;;;;;;8.60;100.00;96597.00;10540332;28;20212;-59
2022/05/02 22:32:56;;;;;;;9.57;8.07;;;;;;;8.57;100.00;96588.50;10540443;28;20215;-57
2022/05/02 22:37:57;;;;;;;10.70;7.60;;;;;;;8.59;100.00;96590.13;10538716;28;20610;-57
2022/05/02 22:42:57;;;;;;;11.07;7.87;;;;;;;8.48;100.00;96584.16;10538573;28;20796;-57
2022/05/02 22:47:57;;;;;;;10.13;8.30;;;;;;;8.42;100.00;96584.69;10538920;28;20701;-57
2022/05/02 22:52:58;;;;;;;12.07;7.87;;;;;;;8.27;100.00;96578.31;10539357;28;20618;-57
2022/05/02 22:58:00;;;;;;;14.00;8.63;;;;;;;8.10;100.00;96572.09;10521569;28;20229;-56
2022/05/02 23:03:23;;;;;;;10.37;8.73;;;;;;;8.02;100.00;96575.41;10520829;28;20237;-57
2022/05/02 23:08:33;;;;;;;11.73;8.77;;;;;;;7.86;100.00;96574.25;10522252;28;20696;-57
2022/05/02 23:13:35;;;;;;;14.30;10.03;;;;;;;7.71;100.00;96570.47;10525561;28;20203;-59
2022/05/02 23:18:36;;;;;;;12.63;9.37;;;;;;;7.65;100.00;96571.84;10539832;28;20190;-58
2022/05/02 23:23:38;;;;;;;9.97;8.30;;;;;;;7.55;100.00;96568.47;10538059;28;20214;-57
2022/05/02 23:28:39;;;;;;;13.40;8.63;;;;;;;7.41;100.00;96567.13;10538179;28;20207;-53
2022/05/02 23:33:47;;;;;;;13.47;8.50;;;;;;;7.29;100.00;96563.03;10538023;28;20214;-56
2022/05/02 23:38:54;;;;;;;10.20;7.43;;;;;;;7.26;100.00;96564.13;10537748;28;20305;-57
2022/05/02 23:44:00;;;;;;;11.00;8.57;;;;;;;7.07;100.00;96546.72;10537369;28;20592;-55
2022/05/02 23:49:17;;;;;;;11.23;9.07;;;;;;;7.02;100.00;96556.72;10537100;28;20194;-57
2022/05/02 23:54:38;;;;;;;12.27;7.93;;;;;;;6.90;100.00;96547.41;10536994;28;20317;-53
2022/05/02 23:59:53;;;;;;;13.07;8.97;;;;;;;6.78;100.00;96547.56;10518770;28;20233;-56
